sensor_id;sensor_type;location;lat;lon;timestamp;P1;durP1;ratioP1;P2;durP2;ratioP2
82900;SDS011;72673;50.822;3.280;2024-02-15T00:00:03;19.25;;;3.58;;
82900;SDS011;72673;50.822;3.280;2024-02-15T00:02:32;11.43;;;3.17;;
82900;SDS011;72673;50.822;3.280;2024-02-15T00:04:58;10.88;;;3.28;;
82900;SDS011;72673;50.822;3.280;2024-02-15T00:07:24;14.52;;;2.97;;
82900;SDS011;72673;50.822;3.280;2024-02-15T00:09:49;14.90;;;3.47;;
82900;SDS011;72673;50.822;3.280;2024-02-15T00:12:15;19.45;;;3.53;;
82900;SDS011;72673;50.822;3.280;2024-02-15T00:14:41;19.95;;;3.55;;
82900;SDS011;72673;50.822;3.280;2024-02-15T00:17:07;20.42;;;4.70;;
82900;SDS011;72673;50.822;3.280;2024-02-15T00:19:33;13.93;;;3.42;;
82900;SDS011;72673;50.822;3.280;2024-02-15T00:21:59;13.40;;;3.40;;
82900;SDS011;72673;50.822;3.280;2024-02-15T00:24:24;10.93;;;3.35;;
82900;SDS011;72673;50.822;3.280;2024-02-15T00:26:50;15.60;;;3.92;;
82900;SDS011;72673;50.822;3.280;2024-02-15T00:29:15;15.15;;;3.40;;
82900;SDS011;72673;50.822;3.280;2024-02-15T00:31:41;15.82;;;3.25;;
82900;SDS011;72673;50.822;3.280;2024-02-15T00:34:07;13.73;;;3.53;;
82900;SDS011;72673;50.822;3.280;2024-02-15T00:36:33;17.60;;;3.33;;
82900;SDS011;72673;50.822;3.280;2024-02-15T00:38:59;10.82;;;2.97;;
82900;SDS011;72673;50.822;3.280;2024-02-15T00:41:24;13.23;;;3.72;;
82900;SDS011;72673;50.822;3.280;2024-02-15T00:43:50;14.70;;;3.40;;
82900;SDS011;72673;50.822;3.280;2024-02-15T00:46:16;16.42;;;3.50;;
82900;SDS011;72673;50.822;3.280;2024-02-15T00:48:41;14.50;;;3.15;;
82900;SDS011;72673;50.822;3.280;2024-02-15T00:51:07;9.55;;;3.22;;
82900;SDS011;72673;50.822;3.280;2024-02-15T00:53:33;13.60;;;3.10;;
82900;SDS011;72673;50.822;3.280;2024-02-15T00:55:59;12.23;;;3.20;;
82900;SDS011;72673;50.822;3.280;2024-02-15T00:58:26;16.63;;;3.30;;
82900;SDS011;72673;50.822;3.280;2024-02-15T01:00:52;16.75;;;3.50;;
82900;SDS011;72673;50.822;3.280;2024-02-15T01:03:18;12.73;;;3.30;;
82900;SDS011;72673;50.822;3.280;2024-02-15T01:05:44;15.85;;;3.42;;
82900;SDS011;72673;50.822;3.280;2024-02-15T01:08:10;13.63;;;3.20;;
82900;SDS011;72673;50.822;3.280;2024-02-15T01:10:36;16.20;;;3.15;;
82900;SDS011;72673;50.822;3.280;2024-02-15T01:13:01;18.92;;;3.78;;
82900;SDS011;72673;50.822;3.280;2024-02-15T01:15:27;11.10;;;3.42;;
82900;SDS011;72673;50.822;3.280;2024-02-15T01:17:53;14.60;;;3.60;;
82900;SDS011;72673;50.822;3.280;2024-02-15T01:20:19;14.93;;;3.38;;
82900;SDS011;72673;50.822;3.280;2024-02-15T01:22:46;16.00;;;3.85;;
82900;SDS011;72673;50.822;3.280;2024-02-15T01:25:11;12.23;;;3.63;;
82900;SDS011;72673;50.822;3.280;2024-02-15T01:27:38;17.80;;;3.55;;
82900;SDS011;72673;50.822;3.280;2024-02-15T01:30:04;11.57;;;4.30;;
82900;SDS011;72673;50.822;3.280;2024-02-15T01:32:30;9.27;;;3.70;;
82900;SDS011;72673;50.822;3.280;2024-02-15T01:34:56;10.95;;;3.30;;
82900;SDS011;72673;50.822;3.280;2024-02-15T01:37:22;11.95;;;3.28;;
82900;SDS011;72673;50.822;3.280;2024-02-15T01:39:48;12.15;;;3.50;;
82900;SDS011;72673;50.822;3.280;2024-02-15T01:42:15;12.85;;;3.88;;
82900;SDS011;72673;50.822;3.280;2024-02-15T01:44:40;9.35;;;3.38;;
82900;SDS011;72673;50.822;3.280;2024-02-15T01:47:08;14.05;;;3.70;;
82900;SDS011;72673;50.822;3.280;2024-02-15T01:49:35;17.85;;;3.53;;
82900;SDS011;72673;50.822;3.280;2024-02-15T01:52:02;16.42;;;3.70;;
82900;SDS011;72673;50.822;3.280;2024-02-15T01:54:29;9.43;;;3.20;;
82900;SDS011;72673;50.822;3.280;2024-02-15T01:56:56;14.15;;;3.90;;
82900;SDS011;72673;50.822;3.280;2024-02-15T01:59:23;15.95;;;4.63;;
82900;SDS011;72673;50.822;3.280;2024-02-15T02:01:49;13.95;;;3.90;;
82900;SDS011;72673;50.822;3.280;2024-02-15T02:04:15;11.07;;;3.80;;
82900;SDS011;72673;50.822;3.280;2024-02-15T02:06:41;10.13;;;3.80;;
82900;SDS011;72673;50.822;3.280;2024-02-15T02:09:10;21.48;;;3.88;;
82900;SDS011;72673;50.822;3.280;2024-02-15T02:11:37;14.98;;;4.10;;
82900;SDS011;72673;50.822;3.280;2024-02-15T02:14:03;12.30;;;4.13;;
82900;SDS011;72673;50.822;3.280;2024-02-15T02:16:29;14.50;;;3.60;;
82900;SDS011;72673;50.822;3.280;2024-02-15T02:19:00;9.05;;;3.40;;
82900;SDS011;72673;50.822;3.280;2024-02-15T02:21:27;15.82;;;4.03;;
82900;SDS011;72673;50.822;3.280;2024-02-15T02:23:57;18.55;;;4.03;;
82900;SDS011;72673;50.822;3.280;2024-02-15T02:26:24;21.95;;;4.30;;
82900;SDS011;72673;50.822;3.280;2024-02-15T02:28:50;12.38;;;3.60;;
82900;SDS011;72673;50.822;3.280;2024-02-15T02:31:20;17.05;;;4.10;;
82900;SDS011;72673;50.822;3.280;2024-02-15T02:33:47;8.95;;;3.83;;
82900;SDS011;72673;50.822;3.280;2024-02-15T02:36:17;12.98;;;4.10;;
82900;SDS011;72673;50.822;3.280;2024-02-15T02:38:43;18.38;;;4.50;;
82900;SDS011;72673;50.822;3.280;2024-02-15T02:41:10;13.13;;;3.95;;
82900;SDS011;72673;50.822;3.280;2024-02-15T02:43:36;14.95;;;4.05;;
82900;SDS011;72673;50.822;3.280;2024-02-15T02:46:02;14.80;;;4.30;;
82900;SDS011;72673;50.822;3.280;2024-02-15T02:48:30;17.38;;;4.63;;
82900;SDS011;72673;50.822;3.280;2024-02-15T02:50:56;12.82;;;3.97;;
82900;SDS011;72673;50.822;3.280;2024-02-15T02:53:22;15.80;;;4.78;;
82900;SDS011;72673;50.822;3.280;2024-02-15T02:55:49;12.65;;;4.38;;
82900;SDS011;72673;50.822;3.280;2024-02-15T02:58:15;15.55;;;4.90;;
82900;SDS011;72673;50.822;3.280;2024-02-15T03:00:40;13.73;;;4.47;;
82900;SDS011;72673;50.822;3.280;2024-02-15T03:03:07;14.10;;;4.78;;
82900;SDS011;72673;50.822;3.280;2024-02-15T03:05:34;15.63;;;4.68;;
82900;SDS011;72673;50.822;3.280;2024-02-15T03:08:00;15.15;;;4.22;;
82900;SDS011;72673;50.822;3.280;2024-02-15T03:10:25;14.05;;;4.40;;
82900;SDS011;72673;50.822;3.280;2024-02-15T03:12:51;12.88;;;4.70;;
82900;SDS011;72673;50.822;3.280;2024-02-15T03:15:17;11.32;;;4.53;;
82900;SDS011;72673;50.822;3.280;2024-02-15T03:17:44;13.18;;;4.13;;
82900;SDS011;72673;50.822;3.280;2024-02-15T03:20:11;14.68;;;4.10;;
82900;SDS011;72673;50.822;3.280;2024-02-15T03:22:58;18.42;;;4.78;;
82900;SDS011;72673;50.822;3.280;2024-02-15T03:25:24;12.85;;;3.67;;
82900;SDS011;72673;50.822;3.280;2024-02-15T03:27:51;13.38;;;3.85;;
82900;SDS011;72673;50.822;3.280;2024-02-15T03:30:18;12.75;;;3.70;;
82900;SDS011;72673;50.822;3.280;2024-02-15T03:32:45;9.10;;;3.60;;
82900;SDS011;72673;50.822;3.280;2024-02-15T03:35:13;12.77;;;4.40;;
82900;SDS011;72673;50.822;3.280;2024-02-15T03:37:40;14.95;;;3.13;;
82900;SDS011;72673;50.822;3.280;2024-02-15T03:40:06;12.88;;;3.53;;
82900;SDS011;72673;50.822;3.280;2024-02-15T03:42:33;13.65;;;3.15;;
82900;SDS011;72673;50.822;3.280;2024-02-15T03:45:01;6.80;;;3.40;;
82900;SDS011;72673;50.822;3.280;2024-02-15T03:47:34;11.35;;;3.50;;
82900;SDS011;72673;50.822;3.280;2024-02-15T03:50:03;10.43;;;3.60;;
82900;SDS011;72673;50.822;3.280;2024-02-15T03:52:30;14.10;;;3.45;;
82900;SDS011;72673;50.822;3.280;2024-02-15T03:54:56;16.17;;;3.35;;
82900;SDS011;72673;50.822;3.280;2024-02-15T03:57:22;15.25;;;4.43;;
82900;SDS011;72673;50.822;3.280;2024-02-15T03:59:49;9.73;;;3.10;;
82900;SDS011;72673;50.822;3.280;2024-02-15T04:02:17;17.40;;;3.83;;
82900;SDS011;72673;50.822;3.280;2024-02-15T04:04:44;14.50;;;3.67;;
82900;SDS011;72673;50.822;3.280;2024-02-15T04:07:12;7.07;;;3.40;;
82900;SDS011;72673;50.822;3.280;2024-02-15T04:09:39;13.88;;;3.72;;
82900;SDS011;72673;50.822;3.280;2024-02-15T04:12:05;8.27;;;3.33;;
82900;SDS011;72673;50.822;3.280;2024-02-15T04:14:32;12.95;;;4.50;;
82900;SDS011;72673;50.822;3.280;2024-02-15T04:16:59;18.05;;;3.90;;
82900;SDS011;72673;50.822;3.280;2024-02-15T04:19:26;14.57;;;3.65;;
82900;SDS011;72673;50.822;3.280;2024-02-15T04:21:52;13.70;;;4.35;;
82900;SDS011;72673;50.822;3.280;2024-02-15T04:24:20;13.25;;;4.53;;
82900;SDS011;72673;50.822;3.280;2024-02-15T04:26:46;13.35;;;4.95;;
82900;SDS011;72673;50.822;3.280;2024-02-15T04:29:13;15.93;;;5.45;;
82900;SDS011;72673;50.822;3.280;2024-02-15T04:31:45;18.02;;;4.93;;
82900;SDS011;72673;50.822;3.280;2024-02-15T04:34:14;17.30;;;5.82;;
82900;SDS011;72673;50.822;3.280;2024-02-15T04:36:46;17.63;;;6.35;;
82900;SDS011;72673;50.822;3.280;2024-02-15T04:39:16;17.35;;;5.72;;
82900;SDS011;72673;50.822;3.280;2024-02-15T04:41:50;18.10;;;6.22;;
82900;SDS011;72673;50.822;3.280;2024-02-15T04:44:16;17.02;;;6.15;;
82900;SDS011;72673;50.822;3.280;2024-02-15T04:46:45;18.50;;;6.38;;
82900;SDS011;72673;50.822;3.280;2024-02-15T04:49:14;16.52;;;6.43;;
82900;SDS011;72673;50.822;3.280;2024-02-15T04:51:40;18.05;;;6.00;;
82900;SDS011;72673;50.822;3.280;2024-02-15T04:54:09;18.27;;;6.55;;
82900;SDS011;72673;50.822;3.280;2024-02-15T04:56:38;17.13;;;5.72;;
82900;SDS011;72673;50.822;3.280;2024-02-15T04:59:07;19.10;;;5.72;;
82900;SDS011;72673;50.822;3.280;2024-02-15T05:01:34;14.27;;;5.55;;
82900;SDS011;72673;50.822;3.280;2024-02-15T05:04:00;14.75;;;6.03;;
82900;SDS011;72673;50.822;3.280;2024-02-15T05:06:31;19.42;;;6.32;;
82900;SDS011;72673;50.822;3.280;2024-02-15T05:08:57;12.70;;;4.97;;
82900;SDS011;72673;50.822;3.280;2024-02-15T05:11:24;16.77;;;5.57;;
82900;SDS011;72673;50.822;3.280;2024-02-15T05:13:50;20.38;;;5.43;;
82900;SDS011;72673;50.822;3.280;2024-02-15T05:16:16;13.75;;;5.45;;
82900;SDS011;72673;50.822;3.280;2024-02-15T05:18:42;13.65;;;4.63;;
82900;SDS011;72673;50.822;3.280;2024-02-15T05:21:08;13.35;;;4.70;;
82900;SDS011;72673;50.822;3.280;2024-02-15T05:23:37;13.93;;;4.95;;
82900;SDS011;72673;50.822;3.280;2024-02-15T05:26:05;16.33;;;4.20;;
82900;SDS011;72673;50.822;3.280;2024-02-15T05:28:31;14.00;;;4.30;;
82900;SDS011;72673;50.822;3.280;2024-02-15T05:31:13;11.88;;;4.20;;
82900;SDS011;72673;50.822;3.280;2024-02-15T05:33:46;11.57;;;4.03;;
82900;SDS011;72673;50.822;3.280;2024-02-15T05:36:16;10.63;;;3.70;;
82900;SDS011;72673;50.822;3.280;2024-02-15T05:38:46;10.38;;;3.50;;
82900;SDS011;72673;50.822;3.280;2024-02-15T05:41:12;11.13;;;3.80;;
82900;SDS011;72673;50.822;3.280;2024-02-15T05:43:40;12.40;;;4.03;;
82900;SDS011;72673;50.822;3.280;2024-02-15T05:46:07;12.67;;;4.20;;
82900;SDS011;72673;50.822;3.280;2024-02-15T05:48:34;9.23;;;3.65;;
82900;SDS011;72673;50.822;3.280;2024-02-15T05:51:03;16.42;;;4.28;;
82900;SDS011;72673;50.822;3.280;2024-02-15T05:53:30;12.02;;;4.25;;
82900;SDS011;72673;50.822;3.280;2024-02-15T05:55:56;10.55;;;3.63;;
82900;SDS011;72673;50.822;3.280;2024-02-15T05:58:25;12.50;;;3.90;;
82900;SDS011;72673;50.822;3.280;2024-02-15T06:00:50;8.43;;;3.63;;
82900;SDS011;72673;50.822;3.280;2024-02-15T06:03:17;8.35;;;4.05;;
82900;SDS011;72673;50.822;3.280;2024-02-15T06:05:43;11.27;;;3.60;;
82900;SDS011;72673;50.822;3.280;2024-02-15T06:08:09;11.50;;;3.90;;
82900;SDS011;72673;50.822;3.280;2024-02-15T06:10:38;9.02;;;3.85;;
82900;SDS011;72673;50.822;3.280;2024-02-15T06:13:05;11.68;;;4.00;;
82900;SDS011;72673;50.822;3.280;2024-02-15T06:15:33;8.23;;;3.55;;
82900;SDS011;72673;50.822;3.280;2024-02-15T06:17:59;6.75;;;3.25;;
82900;SDS011;72673;50.822;3.280;2024-02-15T06:20:26;14.90;;;3.10;;
82900;SDS011;72673;50.822;3.280;2024-02-15T06:22:55;15.32;;;3.78;;
82900;SDS011;72673;50.822;3.280;2024-02-15T06:25:20;11.15;;;3.75;;
82900;SDS011;72673;50.822;3.280;2024-02-15T06:27:46;13.05;;;3.75;;
82900;SDS011;72673;50.822;3.280;2024-02-15T06:30:14;10.27;;;3.30;;
82900;SDS011;72673;50.822;3.280;2024-02-15T06:32:58;9.75;;;2.90;;
82900;SDS011;72673;50.822;3.280;2024-02-15T06:35:42;8.80;;;2.67;;
82900;SDS011;72673;50.822;3.280;2024-02-15T06:38:27;7.53;;;2.65;;
82900;SDS011;72673;50.822;3.280;2024-02-15T06:41:11;8.40;;;2.92;;
82900;SDS011;72673;50.822;3.280;2024-02-15T06:43:37;7.53;;;2.78;;
82900;SDS011;72673;50.822;3.280;2024-02-15T06:46:07;8.90;;;3.25;;
82900;SDS011;72673;50.822;3.280;2024-02-15T06:48:33;8.23;;;2.70;;
82900;SDS011;72673;50.822;3.280;2024-02-15T06:50:59;9.93;;;2.80;;
82900;SDS011;72673;50.822;3.280;2024-02-15T06:53:25;11.43;;;2.80;;
82900;SDS011;72673;50.822;3.280;2024-02-15T06:55:50;11.35;;;3.10;;
82900;SDS011;72673;50.822;3.280;2024-02-15T06:58:16;10.95;;;3.60;;
82900;SDS011;72673;50.822;3.280;2024-02-15T07:00:42;13.18;;;3.40;;
82900;SDS011;72673;50.822;3.280;2024-02-15T07:03:08;12.02;;;3.65;;
82900;SDS011;72673;50.822;3.280;2024-02-15T07:05:36;11.43;;;3.30;;
82900;SDS011;72673;50.822;3.280;2024-02-15T07:08:07;9.07;;;2.95;;
82900;SDS011;72673;50.822;3.280;2024-02-15T07:10:36;9.38;;;3.67;;
82900;SDS011;72673;50.822;3.280;2024-02-15T07:13:04;13.30;;;3.35;;
82900;SDS011;72673;50.822;3.280;2024-02-15T07:15:30;11.68;;;3.30;;
82900;SDS011;72673;50.822;3.280;2024-02-15T07:18:02;11.77;;;3.25;;
82900;SDS011;72673;50.822;3.280;2024-02-15T07:20:32;9.27;;;3.10;;
82900;SDS011;72673;50.822;3.280;2024-02-15T07:22:58;12.38;;;3.60;;
82900;SDS011;72673;50.822;3.280;2024-02-15T07:25:24;14.55;;;3.60;;
82900;SDS011;72673;50.822;3.280;2024-02-15T07:27:50;11.77;;;4.07;;
82900;SDS011;72673;50.822;3.280;2024-02-15T07:30:15;12.57;;;3.75;;
82900;SDS011;72673;50.822;3.280;2024-02-15T07:32:41;7.85;;;3.60;;
82900;SDS011;72673;50.822;3.280;2024-02-15T07:35:07;9.60;;;3.80;;
82900;SDS011;72673;50.822;3.280;2024-02-15T07:37:33;9.05;;;3.53;;
82900;SDS011;72673;50.822;3.280;2024-02-15T07:39:59;17.42;;;4.03;;
82900;SDS011;72673;50.822;3.280;2024-02-15T07:42:25;8.10;;;3.70;;
82900;SDS011;72673;50.822;3.280;2024-02-15T07:44:51;14.65;;;4.10;;
82900;SDS011;72673;50.822;3.280;2024-02-15T07:47:20;13.60;;;3.80;;
82900;SDS011;72673;50.822;3.280;2024-02-15T07:49:49;9.85;;;3.65;;
82900;SDS011;72673;50.822;3.280;2024-02-15T07:52:15;12.38;;;3.92;;
82900;SDS011;72673;50.822;3.280;2024-02-15T07:54:41;12.35;;;3.42;;
82900;SDS011;72673;50.822;3.280;2024-02-15T07:57:06;7.90;;;3.22;;
82900;SDS011;72673;50.822;3.280;2024-02-15T07:59:34;13.10;;;3.33;;
82900;SDS011;72673;50.822;3.280;2024-02-15T08:02:00;13.27;;;2.90;;
82900;SDS011;72673;50.822;3.280;2024-02-15T08:04:26;11.13;;;3.10;;
82900;SDS011;72673;50.822;3.280;2024-02-15T08:06:53;9.18;;;3.10;;
82900;SDS011;72673;50.822;3.280;2024-02-15T08:09:20;10.90;;;2.90;;
82900;SDS011;72673;50.822;3.280;2024-02-15T08:11:49;6.63;;;2.70;;
82900;SDS011;72673;50.822;3.280;2024-02-15T08:14:16;8.20;;;2.85;;
82900;SDS011;72673;50.822;3.280;2024-02-15T08:16:41;6.93;;;2.20;;
82900;SDS011;72673;50.822;3.280;2024-02-15T08:19:07;10.57;;;3.38;;
82900;SDS011;72673;50.822;3.280;2024-02-15T08:21:33;12.93;;;3.00;;
82900;SDS011;72673;50.822;3.280;2024-02-15T08:24:04;10.77;;;2.55;;
82900;SDS011;72673;50.822;3.280;2024-02-15T08:26:33;9.63;;;2.30;;
82900;SDS011;72673;50.822;3.280;2024-02-15T08:29:01;7.72;;;2.65;;
82900;SDS011;72673;50.822;3.280;2024-02-15T08:31:28;7.13;;;2.10;;
82900;SDS011;72673;50.822;3.280;2024-02-15T08:33:56;4.55;;;2.08;;
82900;SDS011;72673;50.822;3.280;2024-02-15T08:36:22;9.02;;;2.30;;
82900;SDS011;72673;50.822;3.280;2024-02-15T08:38:49;5.50;;;2.42;;
82900;SDS011;72673;50.822;3.280;2024-02-15T08:41:15;9.32;;;1.90;;
82900;SDS011;72673;50.822;3.280;2024-02-15T08:43:43;8.77;;;2.40;;
82900;SDS011;72673;50.822;3.280;2024-02-15T08:46:09;5.53;;;1.90;;
82900;SDS011;72673;50.822;3.280;2024-02-15T08:48:38;6.30;;;2.10;;
82900;SDS011;72673;50.822;3.280;2024-02-15T08:51:03;7.75;;;2.15;;
82900;SDS011;72673;50.822;3.280;2024-02-15T08:53:31;5.70;;;1.80;;
82900;SDS011;72673;50.822;3.280;2024-02-15T08:55:57;5.53;;;1.85;;
82900;SDS011;72673;50.822;3.280;2024-02-15T08:58:22;9.43;;;2.13;;
82900;SDS011;72673;50.822;3.280;2024-02-15T09:00:48;4.70;;;1.92;;
82900;SDS011;72673;50.822;3.280;2024-02-15T09:03:15;8.48;;;2.22;;
82900;SDS011;72673;50.822;3.280;2024-02-15T09:05:40;8.98;;;2.10;;
82900;SDS011;72673;50.822;3.280;2024-02-15T09:08:06;8.60;;;2.33;;
82900;SDS011;72673;50.822;3.280;2024-02-15T09:10:32;8.57;;;2.40;;
82900;SDS011;72673;50.822;3.280;2024-02-15T09:12:58;5.10;;;1.80;;
82900;SDS011;72673;50.822;3.280;2024-02-15T09:15:24;7.85;;;2.25;;
82900;SDS011;72673;50.822;3.280;2024-02-15T09:17:50;7.32;;;2.20;;
82900;SDS011;72673;50.822;3.280;2024-02-15T09:20:16;7.20;;;2.35;;
82900;SDS011;72673;50.822;3.280;2024-02-15T09:22:49;5.72;;;1.95;;
82900;SDS011;72673;50.822;3.280;2024-02-15T09:25:16;5.72;;;1.90;;
82900;SDS011;72673;50.822;3.280;2024-02-15T09:27:43;7.60;;;2.00;;
82900;SDS011;72673;50.822;3.280;2024-02-15T09:30:09;11.15;;;2.00;;
82900;SDS011;72673;50.822;3.280;2024-02-15T09:32:36;9.55;;;1.83;;
82900;SDS011;72673;50.822;3.280;2024-02-15T09:35:02;7.70;;;1.90;;
82900;SDS011;72673;50.822;3.280;2024-02-15T09:37:32;4.25;;;1.30;;
82900;SDS011;72673;50.822;3.280;2024-02-15T09:40:03;6.43;;;2.08;;
82900;SDS011;72673;50.822;3.280;2024-02-15T09:42:34;6.60;;;2.03;;
82900;SDS011;72673;50.822;3.280;2024-02-15T09:45:01;8.60;;;2.13;;
82900;SDS011;72673;50.822;3.280;2024-02-15T09:47:30;5.45;;;1.75;;
82900;SDS011;72673;50.822;3.280;2024-02-15T09:50:02;5.57;;;1.65;;
82900;SDS011;72673;50.822;3.280;2024-02-15T09:52:36;4.07;;;1.45;;
82900;SDS011;72673;50.822;3.280;2024-02-15T09:55:04;5.28;;;1.77;;
82900;SDS011;72673;50.822;3.280;2024-02-15T09:57:31;5.93;;;1.95;;
82900;SDS011;72673;50.822;3.280;2024-02-15T09:59:58;5.72;;;1.85;;
82900;SDS011;72673;50.822;3.280;2024-02-15T10:02:28;5.85;;;2.00;;
82900;SDS011;72673;50.822;3.280;2024-02-15T10:04:55;5.97;;;1.90;;
82900;SDS011;72673;50.822;3.280;2024-02-15T10:07:24;6.93;;;1.75;;
82900;SDS011;72673;50.822;3.280;2024-02-15T10:09:52;8.05;;;2.35;;
82900;SDS011;72673;50.822;3.280;2024-02-15T10:12:18;6.60;;;1.55;;
82900;SDS011;72673;50.822;3.280;2024-02-15T10:14:48;5.88;;;1.70;;
82900;SDS011;72673;50.822;3.280;2024-02-15T10:19:43;6.68;;;1.90;;
82900;SDS011;72673;50.822;3.280;2024-02-15T10:22:10;9.90;;;1.80;;
82900;SDS011;72673;50.822;3.280;2024-02-15T10:24:36;9.95;;;2.33;;
82900;SDS011;72673;50.822;3.280;2024-02-15T10:27:04;7.65;;;1.90;;
82900;SDS011;72673;50.822;3.280;2024-02-15T10:29:35;4.10;;;1.80;;
82900;SDS011;72673;50.822;3.280;2024-02-15T10:32:02;6.43;;;1.77;;
82900;SDS011;72673;50.822;3.280;2024-02-15T10:34:29;5.65;;;1.88;;
82900;SDS011;72673;50.822;3.280;2024-02-15T10:37:11;6.45;;;1.65;;
82900;SDS011;72673;50.822;3.280;2024-02-15T10:39:38;3.65;;;1.48;;
82900;SDS011;72673;50.822;3.280;2024-02-15T10:42:05;6.53;;;1.70;;
82900;SDS011;72673;50.822;3.280;2024-02-15T10:44:32;4.25;;;1.50;;
82900;SDS011;72673;50.822;3.280;2024-02-15T10:46:59;4.90;;;1.40;;
82900;SDS011;72673;50.822;3.280;2024-02-15T10:49:31;5.43;;;1.38;;
82900;SDS011;72673;50.822;3.280;2024-02-15T10:51:57;4.65;;;1.65;;
82900;SDS011;72673;50.822;3.280;2024-02-15T10:56:57;7.82;;;1.48;;
82900;SDS011;72673;50.822;3.280;2024-02-15T10:59:31;2.70;;;1.30;;
82900;SDS011;72673;50.822;3.280;2024-02-15T11:01:59;5.53;;;1.35;;
82900;SDS011;72673;50.822;3.280;2024-02-15T11:04:30;3.72;;;1.50;;
82900;SDS011;72673;50.822;3.280;2024-02-15T11:07:00;4.32;;;1.15;;
82900;SDS011;72673;50.822;3.280;2024-02-15T11:09:29;4.03;;;1.38;;
82900;SDS011;72673;50.822;3.280;2024-02-15T11:11:55;7.55;;;1.70;;
82900;SDS011;72673;50.822;3.280;2024-02-15T11:16:48;8.07;;;1.60;;
82900;SDS011;72673;50.822;3.280;2024-02-15T11:22:08;4.63;;;1.42;;
82900;SDS011;72673;50.822;3.280;2024-02-15T11:24:48;6.35;;;1.60;;
82900;SDS011;72673;50.822;3.280;2024-02-15T11:27:35;5.18;;;1.45;;
82900;SDS011;72673;50.822;3.280;2024-02-15T11:30:02;3.85;;;1.65;;
82900;SDS011;72673;50.822;3.280;2024-02-15T11:35:14;7.05;;;1.73;;
82900;SDS011;72673;50.822;3.280;2024-02-15T11:42:42;5.38;;;1.83;;
82900;SDS011;72673;50.822;3.280;2024-02-15T11:45:08;4.88;;;1.77;;
82900;SDS011;72673;50.822;3.280;2024-02-15T11:47:38;5.90;;;1.75;;
82900;SDS011;72673;50.822;3.280;2024-02-15T11:50:07;3.67;;;1.60;;
82900;SDS011;72673;50.822;3.280;2024-02-15T11:53:01;5.75;;;2.03;;
82900;SDS011;72673;50.822;3.280;2024-02-15T11:55:32;6.65;;;1.70;;
82900;SDS011;72673;50.822;3.280;2024-02-15T11:57:58;7.00;;;1.38;;
82900;SDS011;72673;50.822;3.280;2024-02-15T12:00:30;7.05;;;1.48;;
82900;SDS011;72673;50.822;3.280;2024-02-15T12:03:16;4.40;;;1.45;;
82900;SDS011;72673;50.822;3.280;2024-02-15T12:06:01;8.40;;;1.50;;
82900;SDS011;72673;50.822;3.280;2024-02-15T12:08:46;3.55;;;1.60;;
82900;SDS011;72673;50.822;3.280;2024-02-15T12:11:31;6.40;;;2.00;;
82900;SDS011;72673;50.822;3.280;2024-02-15T12:14:16;5.43;;;1.50;;
82900;SDS011;72673;50.822;3.280;2024-02-15T12:17:02;5.82;;;1.50;;
82900;SDS011;72673;50.822;3.280;2024-02-15T12:19:50;5.03;;;1.63;;
82900;SDS011;72673;50.822;3.280;2024-02-15T12:22:25;4.80;;;1.40;;
82900;SDS011;72673;50.822;3.280;2024-02-15T12:25:02;6.22;;;1.80;;
82900;SDS011;72673;50.822;3.280;2024-02-15T12:27:37;4.53;;;1.48;;
82900;SDS011;72673;50.822;3.280;2024-02-15T12:30:04;5.80;;;1.83;;
82900;SDS011;72673;50.822;3.280;2024-02-15T12:32:32;9.23;;;1.75;;
82900;SDS011;72673;50.822;3.280;2024-02-15T12:35:13;6.22;;;1.85;;
82900;SDS011;72673;50.822;3.280;2024-02-15T12:37:47;7.72;;;2.10;;
82900;SDS011;72673;50.822;3.280;2024-02-15T12:40:19;7.28;;;2.60;;
82900;SDS011;72673;50.822;3.280;2024-02-15T12:42:47;7.95;;;1.73;;
82900;SDS011;72673;50.822;3.280;2024-02-15T12:45:19;10.20;;;2.33;;
82900;SDS011;72673;50.822;3.280;2024-02-15T12:47:52;8.30;;;1.95;;
82900;SDS011;72673;50.822;3.280;2024-02-15T12:50:19;4.57;;;1.90;;
82900;SDS011;72673;50.822;3.280;2024-02-15T12:52:47;9.68;;;2.70;;
82900;SDS011;72673;50.822;3.280;2024-02-15T12:55:19;5.63;;;2.60;;
82900;SDS011;72673;50.822;3.280;2024-02-15T12:57:54;7.78;;;2.55;;
82900;SDS011;72673;50.822;3.280;2024-02-15T13:00:23;6.30;;;2.10;;
82900;SDS011;72673;50.822;3.280;2024-02-15T13:02:53;5.75;;;2.67;;
82900;SDS011;72673;50.822;3.280;2024-02-15T13:05:20;8.65;;;2.10;;
82900;SDS011;72673;50.822;3.280;2024-02-15T13:07:47;7.82;;;1.95;;
82900;SDS011;72673;50.822;3.280;2024-02-15T13:10:14;7.00;;;1.63;;
82900;SDS011;72673;50.822;3.280;2024-02-15T13:12:42;6.13;;;1.70;;
82900;SDS011;72673;50.822;3.280;2024-02-15T13:15:10;3.17;;;1.45;;
82900;SDS011;72673;50.822;3.280;2024-02-15T13:17:39;5.72;;;1.58;;
82900;SDS011;72673;50.822;3.280;2024-02-15T13:20:05;6.63;;;1.70;;
82900;SDS011;72673;50.822;3.280;2024-02-15T13:22:36;14.40;;;1.77;;
82900;SDS011;72673;50.822;3.280;2024-02-15T13:25:03;7.97;;;1.42;;
82900;SDS011;72673;50.822;3.280;2024-02-15T13:27:32;13.95;;;1.70;;
82900;SDS011;72673;50.822;3.280;2024-02-15T13:29:58;3.53;;;1.48;;
82900;SDS011;72673;50.822;3.280;2024-02-15T13:32:23;6.60;;;1.60;;
82900;SDS011;72673;50.822;3.280;2024-02-15T13:34:49;6.22;;;1.40;;
82900;SDS011;72673;50.822;3.280;2024-02-15T13:37:21;7.78;;;1.45;;
82900;SDS011;72673;50.822;3.280;2024-02-15T13:39:48;6.03;;;1.60;;
82900;SDS011;72673;50.822;3.280;2024-02-15T13:42:14;6.75;;;1.80;;
82900;SDS011;72673;50.822;3.280;2024-02-15T13:44:42;4.68;;;1.60;;
82900;SDS011;72673;50.822;3.280;2024-02-15T13:47:08;4.30;;;2.00;;
82900;SDS011;72673;50.822;3.280;2024-02-15T13:49:33;4.35;;;1.85;;
82900;SDS011;72673;50.822;3.280;2024-02-15T13:51:59;8.35;;;2.30;;
82900;SDS011;72673;50.822;3.280;2024-02-15T13:54:29;6.57;;;2.25;;
82900;SDS011;72673;50.822;3.280;2024-02-15T13:56:55;6.68;;;2.25;;
82900;SDS011;72673;50.822;3.280;2024-02-15T13:59:21;5.47;;;2.38;;
82900;SDS011;72673;50.822;3.280;2024-02-15T14:01:48;5.53;;;2.42;;
82900;SDS011;72673;50.822;3.280;2024-02-15T14:04:14;6.85;;;2.40;;
82900;SDS011;72673;50.822;3.280;2024-02-15T14:06:41;4.72;;;2.15;;
82900;SDS011;72673;50.822;3.280;2024-02-15T14:09:09;6.43;;;2.25;;
82900;SDS011;72673;50.822;3.280;2024-02-15T14:11:36;5.07;;;2.10;;
82900;SDS011;72673;50.822;3.280;2024-02-15T14:14:03;4.25;;;1.83;;
82900;SDS011;72673;50.822;3.280;2024-02-15T14:16:30;6.93;;;1.90;;
82900;SDS011;72673;50.822;3.280;2024-02-15T14:18:55;10.40;;;1.70;;
82900;SDS011;72673;50.822;3.280;2024-02-15T14:21:21;5.90;;;1.67;;
82900;SDS011;72673;50.822;3.280;2024-02-15T14:23:47;5.65;;;1.77;;
82900;SDS011;72673;50.822;3.280;2024-02-15T14:26:12;5.82;;;1.80;;
82900;SDS011;72673;50.822;3.280;2024-02-15T14:28:38;3.05;;;1.88;;
82900;SDS011;72673;50.822;3.280;2024-02-15T14:31:07;3.30;;;1.55;;
82900;SDS011;72673;50.822;3.280;2024-02-15T14:33:53;5.50;;;1.40;;
82900;SDS011;72673;50.822;3.280;2024-02-15T14:36:19;5.30;;;1.60;;
82900;SDS011;72673;50.822;3.280;2024-02-15T14:38:45;4.78;;;1.40;;
82900;SDS011;72673;50.822;3.280;2024-02-15T14:41:11;4.60;;;1.65;;
82900;SDS011;72673;50.822;3.280;2024-02-15T14:43:37;4.93;;;1.20;;
82900;SDS011;72673;50.822;3.280;2024-02-15T14:46:03;4.47;;;1.65;;
82900;SDS011;72673;50.822;3.280;2024-02-15T14:48:33;4.00;;;1.20;;
82900;SDS011;72673;50.822;3.280;2024-02-15T14:50:59;4.35;;;1.30;;
82900;SDS011;72673;50.822;3.280;2024-02-15T14:53:25;4.55;;;1.90;;
82900;SDS011;72673;50.822;3.280;2024-02-15T14:55:54;4.78;;;1.50;;
82900;SDS011;72673;50.822;3.280;2024-02-15T14:58:20;9.95;;;1.67;;
82900;SDS011;72673;50.822;3.280;2024-02-15T15:00:47;4.40;;;1.33;;
82900;SDS011;72673;50.822;3.280;2024-02-15T15:03:14;7.05;;;1.67;;